Time;durP1;ratioP1;P1;durP2;ratioP2;P2;SDS_P1;SDS_P2;PMS_P1;PMS_P2;Temp;Humidity;BMP_temperature;BMP_pressure;BME280_temperature;BME280_humidity;BME280_pressure;Samples;Min_cycle;Max_cycle;Signal;HPM_P1;HPM_P2
2023/03/25 00:00:14;;;;;;;2.25;1.77;;;;;;;17.48;60.16;98798.22;4381521;32;20126;-83
2023/03/25 00:02:40;;;;;;;2.22;1.73;;;;;;;17.54;60.16;98802.19;4381577;32;20156;-83
2023/03/25 00:05:06;;;;;;;2.25;1.55;;;;;;;17.30;60.16;98808.34;4385919;32;20110;-83
2023/03/25 00:07:32;;;;;;;4.55;2.03;;;;;;;17.40;60.15;98797.97;4381132;32;20160;-84
2023/03/25 00:09:57;;;;;;;2.47;1.60;;;;;;;17.19;60.14;98810.91;4394257;32;20090;-83
2023/03/25 00:12:23;;;;;;;3.95;1.87;;;;;;;17.34;60.15;98799.25;4406276;32;20415;-83
2023/03/25 00:14:53;;;;;;;2.30;1.77;;;;;;;17.29;60.14;98804.03;4392979;32;20144;-83
2023/03/25 00:17:22;;;;;;;3.35;2.10;;;;;;;17.35;60.15;98800.94;4404709;32;20199;-83
2023/03/25 00:19:49;;;;;;;4.97;2.20;;;;;;;17.19;60.14;98816.16;4394315;32;20109;-84
2023/03/25 00:22:16;;;;;;;2.30;1.92;;;;;;;17.26;60.14;98814.75;4381802;32;20241;-84
2023/03/25 00:24:41;;;;;;;2.72;1.77;;;;;;;17.18;60.14;98817.13;4368921;32;20110;-84
2023/03/25 00:27:06;;;;;;;2.45;1.60;;;;;;;17.27;60.14;98813.84;4404045;32;23262;-84
2023/03/25 00:29:32;;;;;;;2.15;1.50;;;;;;;17.27;60.15;98819.09;4399681;32;21000;-84
2023/03/25 00:31:57;;;;;;;2.65;1.35;;;;;;;17.22;60.15;98813.31;4393185;32;20141;-84
2023/03/25 00:34:23;;;;;;;2.05;1.35;;;;;;;16.99;60.12;98819.41;4393706;32;20164;-84
2023/03/25 00:36:48;;;;;;;3.37;1.65;;;;;;;17.10;60.14;98817.69;4393842;32;20144;-84
2023/03/25 00:39:14;;;;;;;5.30;2.40;;;;;;;17.10;60.13;98815.06;4380890;32;20152;-83
2023/03/25 00:41:40;;;;;;;2.50;1.90;;;;;;;16.99;60.12;98814.16;4381007;32;20176;-84
2023/03/25 00:44:06;;;;;;;2.78;1.90;;;;;;;16.86;60.12;98808.97;4381768;32;20439;-84
2023/03/25 00:46:32;;;;;;;2.72;2.22;;;;;;;16.85;60.12;98813.41;4381263;32;20098;-84
2023/03/25 00:48:57;;;;;;;3.45;1.90;;;;;;;16.77;60.12;98810.47;4381286;32;20117;-83
2023/03/25 00:51:24;;;;;;;2.55;1.92;;;;;;;16.83;60.12;98812.66;4380997;32;20129;-83
2023/03/25 00:53:54;;;;;;;2.95;1.75;;;;;;;16.93;60.13;98818.09;4369001;32;20562;-82
2023/03/25 00:56:20;;;;;;;3.50;1.50;;;;;;;16.98;60.13;98812.50;4378686;32;20094;-83
2023/03/25 00:58:46;;;;;;;2.90;1.48;;;;;;;16.88;60.12;98810.53;4381165;32;20120;-82
2023/03/25 01:01:13;;;;;;;2.53;1.20;;;;;;;16.80;60.12;98814.69;4380223;32;20649;-83
2023/03/25 01:03:39;;;;;;;1.90;1.40;;;;;;;16.71;60.12;98810.06;4380930;32;20125;-83
2023/03/25 01:06:10;;;;;;;2.17;1.40;;;;;;;16.73;60.11;98819.53;4380453;32;20112;-82
2023/03/25 01:08:36;;;;;;;3.80;1.50;;;;;;;16.69;60.12;98818.06;4399143;32;20095;-82
2023/03/25 01:11:02;;;;;;;2.70;1.30;;;;;;;16.79;60.12;98807.72;4392150;32;20133;-83
2023/03/25 01:13:27;;;;;;;1.65;1.00;;;;;;;16.75;60.11;98830.75;4382852;32;20087;-84
2023/03/25 01:15:53;;;;;;;1.80;1.08;;;;;;;16.47;60.10;98813.47;4389071;32;20163;-83
2023/03/25 01:18:18;;;;;;;1.77;1.33;;;;;;;16.48;60.10;98812.53;4386421;32;23271;-83
2023/03/25 01:20:44;;;;;;;1.65;1.10;;;;;;;16.51;60.10;98821.97;4380559;32;20170;-83
2023/03/25 01:23:09;;;;;;;3.28;0.95;;;;;;;16.59;60.11;98822.28;4380557;32;20157;-83
2023/03/25 01:25:35;;;;;;;1.65;1.10;;;;;;;16.62;60.12;98821.22;4403805;32;20102;-83
2023/03/25 01:28:01;;;;;;;1.17;0.90;;;;;;;16.65;60.11;98821.00;4399356;32;20098;-83
2023/03/25 01:30:26;;;;;;;1.73;1.00;;;;;;;16.53;60.10;98827.94;4380807;32;20121;-82
2023/03/25 01:32:51;;;;;;;2.53;1.42;;;;;;;16.55;60.10;98829.53;4393250;32;20183;-83
2023/03/25 01:35:17;;;;;;;4.03;1.70;;;;;;;16.56;60.11;98833.00;4393034;32;20106;-83
2023/03/25 01:37:43;;;;;;;2.55;1.35;;;;;;;16.47;60.10;98837.13;4372859;32;20422;-84
2023/03/25 01:40:09;;;;;;;2.10;1.42;;;;;;;16.44;60.10;98842.59;4401805;32;20213;-84
2023/03/25 01:42:35;;;;;;;1.83;1.30;;;;;;;16.52;60.10;98842.03;4380736;32;20164;-84
2023/03/25 01:45:12;;;;;;;2.75;1.45;;;;;;;16.45;60.10;98838.19;4393110;32;20398;-84
2023/03/25 01:47:37;;;;;;;3.42;1.70;;;;;;;16.46;60.11;98838.06;4407203;32;20184;-83
2023/03/25 01:50:03;;;;;;;3.22;1.70;;;;;;;16.31;60.09;98841.75;4380223;32;20465;-84
2023/03/25 01:52:29;;;;;;;2.70;1.95;;;;;;;16.34;60.09;98848.59;4380534;32;20128;-84
2023/03/25 01:54:55;;;;;;;3.53;2.03;;;;;;;16.35;60.09;98852.91;4360862;32;20082;-83
2023/03/25 01:57:21;;;;;;;4.68;2.00;;;;;;;16.05;60.07;98850.59;4380601;32;20108;-82
2023/03/25 01:59:46;;;;;;;2.45;1.58;;;;;;;15.94;60.07;98856.59;4393335;32;20124;-83
2023/03/25 02:02:14;;;;;;;3.37;1.95;;;;;;;15.90;60.06;98847.25;4392679;32;20630;-81
2023/03/25 02:04:58;;;;;;;7.03;2.05;;;;;;;15.76;60.06;98863.91;4393112;32;20161;-83
2023/03/25 02:07:29;;;;;;;2.05;1.50;;;;;;;15.68;60.05;98858.34;4380603;32;20427;-83
2023/03/25 02:09:57;;;;;;;3.47;1.80;;;;;;;15.55;60.05;98863.53;4372368;32;20495;-83
2023/03/25 02:12:23;;;;;;;2.15;1.33;;;;;;;15.58;60.04;98858.13;4378729;32;20110;-82
2023/03/25 02:14:49;;;;;;;3.35;1.73;;;;;;;15.44;60.04;98847.69;4365620;32;20090;-83
2023/03/25 02:17:44;;;;;;;1.98;1.40;;;;;;;15.26;60.03;98852.34;4369208;32;20153;-84
2023/03/25 02:20:28;;;;;;;2.70;1.25;;;;;;;15.09;60.01;98857.00;4391171;32;20911;-83
2023/03/25 02:23:09;;;;;;;2.62;1.50;;;;;;;14.98;60.02;98855.94;4387211;32;20581;-83
2023/03/25 02:25:50;;;;;;;2.30;1.40;;;;;;;14.77;60.00;98865.16;4374818;32;20098;-83
2023/03/25 02:28:54;;;;;;;4.40;1.37;;;;;;;14.74;60.00;98866.19;4392889;32;20164;-83
2023/03/25 02:31:38;;;;;;;3.10;1.27;;;;;;;14.59;59.99;98847.97;4391635;32;20113;-83
2023/03/25 02:34:31;;;;;;;3.87;1.45;;;;;;;14.39;59.99;98847.38;4399563;32;20176;-82
2023/03/25 02:37:03;;;;;;;1.95;1.35;;;;;;;14.52;59.99;98836.19;4394373;32;20090;-83
2023/03/25 02:39:39;;;;;;;3.55;1.65;;;;;;;14.68;60.00;98836.94;4392554;32;20162;-83
2023/03/25 02:42:13;;;;;;;1.85;1.00;;;;;;;14.55;60.00;98831.59;4380668;32;20517;-83
2023/03/25 02:44:40;;;;;;;1.52;0.85;;;;;;;14.47;60.00;98831.25;4380048;32;20528;-83
2023/03/25 02:47:08;;;;;;;2.42;1.48;;;;;;;14.71;60.01;98840.19;4392469;32;20163;-83
2023/03/25 02:49:42;;;;;;;2.50;1.02;;;;;;;14.53;59.99;98838.72;4380041;32;20102;-82
2023/03/25 02:52:23;;;;;;;1.83;1.00;;;;;;;14.61;59.99;98830.38;4380170;32;20101;-82
2023/03/25 02:54:48;;;;;;;1.42;0.90;;;;;;;14.56;60.00;98835.06;4381411;32;20102;-82
2023/03/25 02:57:15;;;;;;;1.60;0.90;;;;;;;14.40;59.99;98840.38;4378387;32;20129;-83
2023/03/25 02:59:41;;;;;;;1.17;0.75;;;;;;;14.34;59.98;98838.97;4371486;32;20094;-83
2023/03/25 03:02:07;;;;;;;2.28;1.10;;;;;;;14.26;59.98;98838.62;4377459;32;20144;-83
2023/03/25 03:04:52;;;;;;;1.30;0.85;;;;;;;14.34;59.98;98843.37;4371169;32;20136;-82
2023/03/25 03:07:28;;;;;;;1.50;0.73;;;;;;;14.24;59.97;98843.13;4366658;32;20094;-83
2023/03/25 03:10:22;;;;;;;2.08;1.00;;;;;;;14.38;59.98;98835.22;4392142;32;20161;-84
2023/03/25 03:13:14;;;;;;;1.95;1.20;;;;;;;14.45;59.99;98845.38;4402118;32;20210;-83
2023/03/25 03:15:51;;;;;;;2.67;1.23;;;;;;;14.17;59.97;98840.94;4379144;32;20150;-83
2023/03/25 03:19:14;;;;;;;4.82;1.27;;;;;;;14.20;59.98;98838.16;4380721;32;20094;-82
2023/03/25 03:22:00;;;;;;;6.03;1.62;;;;;;;14.07;59.97;98844.13;4331589;33;20535;-82
2023/03/25 03:24:35;;;;;;;3.05;1.85;;;;;;;13.94;59.95;98847.56;4343800;33;20657;-85
2023/03/25 03:27:11;;;;;;;3.50;1.67;;;;;;;13.78;59.94;98848.50;4376668;32;20564;-83
2023/03/25 03:29:51;;;;;;;1.42;1.27;;;;;;;13.60;59.94;98852.19;4394462;32;20083;-82
2023/03/25 03:32:19;;;;;;;2.87;1.55;;;;;;;13.49;59.94;98855.44;4394333;32;20086;-83
2023/03/25 03:34:50;;;;;;;6.60;2.10;;;;;;;13.35;59.92;98865.84;4394383;32;20106;-83
2023/03/25 03:37:18;;;;;;;4.62;1.52;;;;;;;13.36;59.92;98857.06;4376584;32;20114;-84
2023/03/25 03:39:44;;;;;;;3.55;1.77;;;;;;;13.60;59.94;98862.66;4375382;32;20153;-83
2023/03/25 03:42:26;;;;;;;1.92;1.33;;;;;;;13.63;59.94;98867.69;4393982;32;20371;-83
2023/03/25 03:45:08;;;;;;;3.83;2.10;;;;;;;13.67;59.94;98871.81;4382803;32;20132;-83
2023/03/25 03:47:37;;;;;;;2.75;1.80;;;;;;;13.64;59.95;98869.38;4381719;32;20390;-84
2023/03/25 03:50:14;;;;;;;5.18;1.73;;;;;;;13.65;59.95;98875.47;4381660;32;20116;-83
2023/03/25 03:52:59;;;;;;;3.40;1.67;;;;;;;13.61;59.94;98880.03;4381828;32;20098;-83
2023/03/25 03:55:36;;;;;;;4.10;1.87;;;;;;;13.62;59.93;98875.63;4382953;32;20113;-83
2023/03/25 03:58:24;;;;;;;3.25;1.95;;;;;;;13.61;59.94;98885.25;4382428;32;20454;-84
2023/03/25 04:00:51;;;;;;;1.62;1.50;;;;;;;13.70;59.94;98889.94;4395567;32;20089;-83
2023/03/25 04:03:23;;;;;;;3.83;2.25;;;;;;;13.57;59.94;98899.44;4384996;32;20112;-83
2023/03/25 04:05:52;;;;;;;6.37;2.37;;;;;;;13.71;59.94;98891.62;4381052;32;20168;-84
2023/03/25 04:08:30;;;;;;;5.47;2.40;;;;;;;13.69;59.94;98900.50;4373301;32;20136;-84
2023/03/25 04:10:57;;;;;;;3.62;2.05;;;;;;;13.65;59.95;98897.22;4381668;32;20442;-84
2023/03/25 04:13:23;;;;;;;3.22;1.90;;;;;;;13.68;59.94;98898.81;4381977;32;20116;-84
2023/03/25 04:15:49;;;;;;;5.90;2.08;;;;;;;13.54;59.93;98899.62;4369011;32;20118;-84
2023/03/25 04:18:14;;;;;;;4.55;2.17;;;;;;;13.45;59.93;98908.81;4381626;32;20145;-84
2023/03/25 04:20:43;;;;;;;3.67;2.10;;;;;;;13.53;59.93;98903.16;4380751;32;20374;-83
2023/03/25 04:23:09;;;;;;;5.50;2.40;;;;;;;13.61;59.94;98908.78;4382099;32;20094;-83
2023/03/25 04:25:35;;;;;;;3.75;2.25;;;;;;;13.60;59.94;98914.13;4381345;32;20139;-84
2023/03/25 04:28:04;;;;;;;3.05;2.05;;;;;;;13.75;59.95;98914.06;4393634;32;20491;-84
2023/03/25 04:30:29;;;;;;;3.00;2.47;;;;;;;13.64;59.93;98913.00;4393749;32;20109;-83
2023/03/25 04:32:55;;;;;;;2.35;1.60;;;;;;;13.64;59.95;98913.84;4393882;32;20109;-83
2023/03/25 04:35:21;;;;;;;3.47;2.15;;;;;;;13.69;59.94;98922.25;4393741;32;20150;-82
2023/03/25 04:37:47;;;;;;;4.12;2.28;;;;;;;13.74;59.94;98920.25;4407710;32;20482;-83
2023/03/25 04:40:15;;;;;;;3.47;2.12;;;;;;;13.74;59.94;98915.00;4380520;32;20451;-84
2023/03/25 04:42:41;;;;;;;3.10;2.08;;;;;;;13.73;59.95;98917.72;4381423;32;20458;-83
2023/03/25 04:45:07;;;;;;;4.22;1.75;;;;;;;13.87;59.95;98924.75;4393511;32;20138;-83
2023/03/25 04:47:33;;;;;;;3.47;1.65;;;;;;;13.81;59.95;98928.56;4394019;32;20179;-83
2023/03/25 04:49:58;;;;;;;6.53;1.62;;;;;;;13.79;59.95;98927.81;4380994;32;20459;-84
2023/03/25 04:52:24;;;;;;;3.83;1.70;;;;;;;13.67;59.94;98931.12;4393373;32;20098;-83
2023/03/25 04:54:50;;;;;;;1.90;1.40;;;;;;;13.63;59.94;98940.06;4393701;32;20143;-84
2023/03/25 04:57:15;;;;;;;1.75;1.40;;;;;;;13.64;59.95;98944.38;4393796;32;20439;-85
2023/03/25 04:59:40;;;;;;;1.50;1.10;;;;;;;13.63;59.93;98940.91;4381032;32;20400;-85
2023/03/25 05:02:06;;;;;;;2.78;1.20;;;;;;;13.74;59.94;98945.56;4380379;32;24805;-85
2023/03/25 05:04:31;;;;;;;2.62;1.20;;;;;;;13.74;59.94;98940.31;4380661;32;20124;-85
2023/03/25 05:06:57;;;;;;;2.30;1.02;;;;;;;13.70;59.94;98946.63;4380790;32;20121;-84
2023/03/25 05:09:23;;;;;;;2.67;1.10;;;;;;;13.65;59.94;98943.44;4381157;32;20144;-84
2023/03/25 05:11:49;;;;;;;1.27;0.88;;;;;;;13.65;59.94;98951.28;4380755;32;20116;-83
2023/03/25 05:14:17;;;;;;;2.83;1.17;;;;;;;13.71;59.94;98954.38;4380761;32;20114;-84
2023/03/25 05:16:43;;;;;;;1.20;0.80;;;;;;;13.67;59.94;98962.50;4393628;32;20122;-86
2023/03/25 05:19:09;;;;;;;1.30;0.65;;;;;;;13.51;59.93;98952.09;4380394;32;20423;-84
2023/03/25 05:21:35;;;;;;;1.65;0.70;;;;;;;13.43;59.93;98969.97;4380892;32;20434;-85
2023/03/25 05:24:01;;;;;;;0.80;0.60;;;;;;;13.31;59.91;98962.81;4380899;32;20114;-84
2023/03/25 05:26:33;;;;;;;0.82;0.43;;;;;;;13.39;59.92;98964.06;4380805;32;20156;-85
2023/03/25 05:29:08;;;;;;;1.10;0.60;;;;;;;13.41;59.92;98963.97;4382233;32;20090;-84
2023/03/25 05:31:34;;;;;;;1.73;0.60;;;;;;;13.42;59.93;98963.91;4392990;32;20085;-84
2023/03/25 05:33:59;;;;;;;1.45;0.77;;;;;;;13.50;59.93;98960.88;4358465;32;20129;-84
2023/03/25 05:36:25;;;;;;;1.02;0.73;;;;;;;13.48;59.92;98962.69;4381070;32;20138;-85
2023/03/25 05:38:53;;;;;;;0.93;0.50;;;;;;;13.53;59.93;98963.31;4393441;32;20160;-85
2023/03/25 05:41:21;;;;;;;2.62;0.85;;;;;;;13.46;59.93;98959.34;4381194;32;20112;-85
2023/03/25 05:43:49;;;;;;;0.75;0.55;;;;;;;13.42;59.93;98953.44;4393182;32;20167;-84
2023/03/25 05:46:16;;;;;;;1.80;0.50;;;;;;;13.43;59.93;98962.97;4381465;32;20110;-85
2023/03/25 05:48:42;;;;;;;0.98;0.70;;;;;;;13.39;59.92;98966.69;4380992;32;20109;-85
2023/03/25 05:51:12;;;;;;;0.65;0.55;;;;;;;13.19;59.92;98962.56;4378535;32;20088;-85
2023/03/25 05:53:38;;;;;;;1.30;0.55;;;;;;;13.21;59.91;98976.38;4376832;32;20110;-85
2023/03/25 05:56:04;;;;;;;1.02;0.75;;;;;;;13.13;59.91;98972.47;4377287;32;20132;-85
2023/03/25 05:58:31;;;;;;;0.77;0.55;;;;;;;13.29;59.92;98969.91;4380248;32;20109;-85
2023/03/25 06:00:58;;;;;;;0.90;0.70;;;;;;;13.26;59.92;98973.53;4380693;32;20157;-85
2023/03/25 06:03:24;;;;;;;2.08;0.60;;;;;;;13.19;59.92;98980.00;4393423;32;20137;-86
2023/03/25 06:05:51;;;;;;;1.15;0.60;;;;;;;13.31;59.91;98976.72;4366983;32;20118;-84
2023/03/25 06:08:18;;;;;;;1.17;0.70;;;;;;;13.44;59.93;98987.34;4385055;32;20155;-85
2023/03/25 06:10:44;;;;;;;0.90;0.50;;;;;;;13.51;59.93;98989.53;4380607;32;20526;-86
2023/03/25 06:13:10;;;;;;;1.98;0.60;;;;;;;13.36;59.92;98986.94;4380614;32;20167;-86
2023/03/25 06:15:39;;;;;;;1.55;0.65;;;;;;;13.51;59.93;98983.47;4380530;32;20099;-86
2023/03/25 06:18:05;;;;;;;1.35;0.60;;;;;;;13.65;59.94;98988.75;4381564;32;20235;-86
2023/03/25 06:20:32;;;;;;;2.37;0.60;;;;;;;13.70;59.94;98978.03;4380385;32;20130;-86
2023/03/25 06:22:57;;;;;;;1.12;0.60;;;;;;;13.87;59.94;98982.28;4406939;32;20185;-86
2023/03/25 06:25:25;;;;;;;3.67;0.68;;;;;;;14.01;59.95;98984.97;4379517;32;26472;-86
2023/03/25 06:27:50;;;;;;;2.55;0.80;;;;;;;13.95;59.96;98980.06;4393479;32;20094;-86
2023/03/25 06:30:18;;;;;;;0.80;0.70;;;;;;;13.96;59.96;98984.38;4392950;32;20197;-86
2023/03/25 06:32:43;;;;;;;1.48;0.70;;;;;;;13.82;59.95;98988.63;4380533;32;20113;-86
2023/03/25 06:35:09;;;;;;;0.82;0.65;;;;;;;13.93;59.95;98988.00;4392509;32;20169;-86
2023/03/25 06:37:35;;;;;;;1.48;0.70;;;;;;;13.92;59.94;98990.72;4367834;32;20129;-86
2023/03/25 06:40:01;;;;;;;0.82;0.60;;;;;;;13.94;59.96;98984.47;4392629;32;20375;-86
2023/03/25 06:42:26;;;;;;;1.58;0.80;;;;;;;13.94;59.94;98991.47;4380223;32;20204;-87
2023/03/25 06:44:52;;;;;;;2.30;0.88;;;;;;;13.91;59.95;99000.34;4379868;32;20153;-87
2023/03/25 06:47:17;;;;;;;1.23;0.77;;;;;;;13.98;59.95;99000.84;4380300;32;20494;-87
2023/03/25 06:49:43;;;;;;;1.30;0.80;;;;;;;14.18;59.97;98990.03;4392748;32;20141;-86
2023/03/25 06:52:08;;;;;;;2.70;0.95;;;;;;;14.16;59.96;98991.91;4379846;32;20144;-86
2023/03/25 06:54:34;;;;;;;1.20;0.85;;;;;;;14.27;59.97;98997.38;4379726;32;20684;-86
2023/03/25 06:56:59;;;;;;;1.20;0.80;;;;;;;14.33;59.98;98991.75;4384625;32;25800;-86
2023/03/25 06:59:24;;;;;;;1.33;0.82;;;;;;;14.39;59.97;98988.78;4387221;32;20093;-86
2023/03/25 07:01:50;;;;;;;5.85;1.10;;;;;;;14.45;59.98;98994.63;4364876;32;20159;-86
2023/03/25 07:04:15;;;;;;;1.30;0.90;;;;;;;14.57;59.99;98999.12;4366273;32;20355;-86
2023/03/25 07:06:41;;;;;;;5.62;1.30;;;;;;;14.44;59.98;98991.16;4360863;32;20144;-86
2023/03/25 07:09:06;;;;;;;2.33;1.12;;;;;;;14.63;59.98;98996.97;4381502;32;20133;-85
2023/03/25 07:11:32;;;;;;;2.15;0.98;;;;;;;14.65;59.99;98996.88;4394474;32;20114;-85
2023/03/25 07:13:57;;;;;;;1.60;1.20;;;;;;;14.63;59.98;99006.59;4381792;32;20086;-87
2023/03/25 07:16:23;;;;;;;2.22;1.20;;;;;;;14.65;59.99;99008.19;4388116;32;20476;-85
2023/03/25 07:18:49;;;;;;;1.83;1.27;;;;;;;14.91;60.00;99011.88;4378175;32;20094;-85
2023/03/25 07:21:15;;;;;;;2.05;1.02;;;;;;;14.93;60.00;99009.16;4394465;32;20607;-85
2023/03/25 07:23:40;;;;;;;2.10;1.00;;;;;;;14.94;60.00;99006.44;4407166;32;20122;-85
2023/03/25 07:26:06;;;;;;;1.60;1.20;;;;;;;14.98;60.00;99012.31;4401933;32;20130;-85
2023/03/25 07:28:31;;;;;;;1.30;1.20;;;;;;;15.05;60.01;99017.09;4389063;32;20156;-85
2023/03/25 07:30:56;;;;;;;1.15;1.05;;;;;;;15.12;60.02;99016.69;4379036;32;22403;-85
2023/03/25 07:33:22;;;;;;;1.87;1.05;;;;;;;15.02;60.01;99019.91;4368075;32;21492;-85
2023/03/25 07:35:47;;;;;;;2.50;1.20;;;;;;;15.08;60.01;99020.44;4394265;32;20175;-86
2023/03/25 07:38:13;;;;;;;2.17;1.17;;;;;;;15.12;60.02;99014.06;4381532;32;20177;-85
2023/03/25 07:40:38;;;;;;;1.45;1.33;;;;;;;15.19;60.02;99005.75;4394197;32;20121;-85
2023/03/25 07:43:04;;;;;;;2.17;1.17;;;;;;;15.15;60.01;98999.03;4393795;32;20449;-84
2023/03/25 07:45:29;;;;;;;1.60;1.15;;;;;;;15.28;60.02;99013.03;4381712;32;20105;-85
2023/03/25 07:47:55;;;;;;;1.80;1.05;;;;;;;15.39;60.02;99007.12;4380617;32;20147;-85
2023/03/25 07:50:20;;;;;;;6.20;1.10;;;;;;;15.38;60.03;99010.69;4384521;32;20289;-84
2023/03/25 07:52:46;;;;;;;1.90;1.23;;;;;;;15.52;60.03;99002.75;4379330;32;20118;-84
2023/03/25 07:55:11;;;;;;;2.35;1.30;;;;;;;15.80;60.05;99014.12;4379346;32;20138;-86
2023/03/25 07:57:37;;;;;;;1.65;1.00;;;;;;;15.92;60.05;98997.59;4367327;32;20105;-85
2023/03/25 08:00:04;;;;;;;1.33;1.12;;;;;;;15.88;60.06;99002.22;4378805;32;20815;-85
2023/03/25 08:02:30;;;;;;;2.28;0.82;;;;;;;16.04;60.06;99017.78;4392903;32;20170;-85
2023/03/25 08:04:56;;;;;;;3.05;1.15;;;;;;;16.30;60.07;99009.94;4378724;32;20110;-86
2023/03/25 08:07:21;;;;;;;1.55;1.00;;;;;;;16.41;60.09;99012.69;4366396;32;20459;-86
2023/03/25 08:09:47;;;;;;;2.22;1.00;;;;;;;16.44;60.08;99008.06;4366690;32;20164;-85
2023/03/25 08:12:12;;;;;;;2.00;1.30;;;;;;;16.47;60.09;99005.25;4392770;32;20519;-86
2023/03/25 08:14:38;;;;;;;1.55;1.00;;;;;;;16.48;60.09;99006.06;4377819;32;20185;-85
2023/03/25 08:17:06;;;;;;;4.95;1.33;;;;;;;16.21;60.07;99014.88;4365793;32;20154;-85
2023/03/25 08:19:32;;;;;;;3.33;1.00;;;;;;;16.52;60.08;99005.75;4392711;32;20126;-85
2023/03/25 08:21:57;;;;;;;1.25;0.90;;;;;;;16.62;60.10;99008.63;4366607;32;20111;-85
2023/03/25 08:24:25;;;;;;;2.78;1.33;;;;;;;16.51;60.09;99008.50;4379216;32;20399;-85
2023/03/25 08:26:52;;;;;;;4.22;1.05;;;;;;;16.71;60.10;99009.78;4379216;32;20098;-84
2023/03/25 08:29:18;;;;;;;2.08;1.02;;;;;;;16.86;60.11;99001.69;4366689;32;20482;-85
2023/03/25 08:31:45;;;;;;;4.97;2.10;;;;;;;17.11;60.12;99005.25;4392669;32;20154;-85
2023/03/25 08:34:11;;;;;;;1.60;0.90;;;;;;;17.55;60.15;98998.59;4379222;32;20168;-85
2023/03/25 08:36:38;;;;;;;2.17;1.10;;;;;;;17.72;60.15;98990.31;4378884;32;20466;-85
2023/03/25 08:39:10;;;;;;;1.95;1.45;;;;;;;17.66;60.15;98988.13;4392927;32;20396;-83
2023/03/25 08:41:37;;;;;;;1.37;0.80;;;;;;;17.66;60.15;98988.94;4392843;32;20400;-85
2023/03/25 08:44:02;;;;;;;1.08;0.90;;;;;;;17.71;60.16;98986.00;4391575;32;20090;-84
2023/03/25 08:46:28;;;;;;;1.00;0.90;;;;;;;17.55;60.15;98980.16;4366451;32;20535;-84
2023/03/25 08:48:54;;;;;;;1.83;1.05;;;;;;;17.66;60.15;98988.13;4378937;32;20122;-84
2023/03/25 08:51:20;;;;;;;2.28;1.30;;;;;;;17.64;60.15;98984.75;4366342;32;20110;-84
2023/03/25 08:53:45;;;;;;;3.20;1.17;;;;;;;17.73;60.15;98994.63;4391967;32;20184;-84
2023/03/25 08:56:11;;;;;;;3.12;1.30;;;;;;;17.80;60.16;98982.72;4381002;32;22621;-85
2023/03/25 08:58:36;;;;;;;2.92;1.10;;;;;;;17.88;60.16;98982.97;4393343;32;25204;-85
2023/03/25 09:01:02;;;;;;;3.22;1.20;;;;;;;17.84;60.15;98980.69;4381204;32;20098;-85
2023/03/25 09:03:29;;;;;;;1.55;1.00;;;;;;;17.94;60.17;98976.41;4394009;32;20101;-84
2023/03/25 09:05:55;;;;;;;3.00;1.10;;;;;;;18.12;60.17;98984.75;4381032;32;20164;-85
2023/03/25 09:08:20;;;;;;;3.50;1.20;;;;;;;18.32;60.19;98976.19;4381383;32;20522;-84
2023/03/25 09:10:46;;;;;;;1.25;0.88;;;;;;;18.26;60.19;98988.03;4393383;32;20474;-84
2023/03/25 09:13:11;;;;;;;1.48;1.00;;;;;;;17.91;60.16;98988.00;4393412;32;20102;-84
2023/03/25 09:15:37;;;;;;;2.08;0.93;;;;;;;18.02;60.17;98988.06;4380633;32;21990;-84
2023/03/25 09:18:02;;;;;;;2.15;0.88;;;;;;;18.04;60.17;98978.25;4381095;32;20136;-84
2023/03/25 09:20:27;;;;;;;4.25;1.33;;;;;;;17.99;60.16;98992.72;4381113;32;20897;-84
2023/03/25 09:22:53;;;;;;;1.70;0.95;;;;;;;17.85;60.15;98995.53;4381017;32;20185;-85
2023/03/25 09:25:19;;;;;;;3.08;1.10;;;;;;;18.04;60.17;98995.84;4393356;32;20097;-84
2023/03/25 09:27:44;;;;;;;1.50;1.00;;;;;;;18.40;60.19;98987.78;4381192;32;20439;-85
2023/03/25 09:30:10;;;;;;;1.60;0.77;;;;;;;18.48;60.20;98981.13;4381290;32;20913;-84
2023/03/25 09:32:36;;;;;;;0.80;0.80;;;;;;;18.70;60.21;98997.00;4393764;32;20115;-84
2023/03/25 09:35:01;;;;;;;2.62;0.82;;;;;;;18.78;60.21;98986.69;4393693;32;20109;-85
2023/03/25 09:37:27;;;;;;;1.42;0.77;;;;;;;18.97;60.21;98983.47;4373939;32;20132;-84
2023/03/25 09:39:52;;;;;;;3.40;1.00;;;;;;;18.91;60.21;98982.13;4390782;32;20491;-84
2023/03/25 09:42:24;;;;;;;3.97;0.95;;;;;;;18.75;60.21;98991.38;4393630;32;20160;-84
2023/03/25 09:45:26;;;;;;;1.90;0.85;;;;;;;18.97;60.22;98981.66;4407557;32;20101;-85
2023/03/25 09:48:13;;;;;;;3.45;1.00;;;;;;;19.21;60.23;98988.59;4407606;32;20101;-85
2023/03/25 09:50:39;;;;;;;2.05;1.17;;;;;;;19.08;60.23;98986.06;4390795;32;82693;-84
2023/03/25 09:53:29;;;;;;;1.62;1.08;;;;;;;18.78;60.21;98984.06;4380518;32;20576;-85
2023/03/25 09:55:54;;;;;;;1.85;0.85;;;;;;;18.88;60.22;98985.00;4393183;32;20090;-84
2023/03/25 09:58:25;;;;;;;2.33;1.35;;;;;;;19.02;60.23;98987.41;4380678;32;20500;-85
2023/03/25 10:00:55;;;;;;;1.48;1.10;;;;;;;19.24;60.24;98991.81;4393266;32;20093;-84
2023/03/25 10:03:25;;;;;;;1.80;0.85;;;;;;;19.64;60.26;98993.94;4381274;32;20098;-85
2023/03/25 10:06:19;;;;;;;1.65;1.20;;;;;;;19.73;60.26;98995.81;4380840;32;20152;-85
2023/03/25 10:09:09;;;;;;;3.22;1.92;;;;;;;19.50;60.25;98989.72;4393570;32;20098;-84
2023/03/25 10:11:58;;;;;;;2.97;1.42;;;;;;;19.39;60.25;98994.19;4373109;32;20136;-85
2023/03/25 10:14:49;;;;;;;1.20;0.90;;;;;;;19.25;60.24;99011.13;4406884;32;20126;-84
2023/03/25 10:17:38;;;;;;;2.03;1.25;;;;;;;19.09;60.24;98997.47;4393001;32;20132;-86
2023/03/25 10:20:19;;;;;;;3.20;1.42;;;;;;;19.30;60.24;98991.31;4381127;32;20142;-86
2023/03/25 10:23:02;;;;;;;3.25;1.20;;;;;;;19.46;60.25;98992.75;4380989;32;20490;-84
2023/03/25 10:25:29;;;;;;;2.85;1.30;;;;;;;19.76;60.26;98989.44;4381108;32;20108;-84
2023/03/25 10:27:54;;;;;;;3.20;1.65;;;;;;;19.85;60.28;98980.75;4380916;32;20184;-84
2023/03/25 10:30:25;;;;;;;3.30;1.52;;;;;;;19.57;60.26;98990.09;4380465;32;20456;-85
2023/03/25 10:32:57;;;;;;;2.30;1.83;;;;;;;19.65;60.26;98979.78;4381332;32;20640;-84
2023/03/25 10:35:23;;;;;;;3.70;1.40;;;;;;;19.57;60.26;98992.72;4380733;32;20093;-84
2023/03/25 10:37:50;;;;;;;2.12;1.12;;;;;;;19.73;60.27;98993.19;4393792;32;20102;-83
2023/03/25 10:40:23;;;;;;;2.70;0.90;;;;;;;20.05;60.28;98982.59;4382194;32;20114;-85
2023/03/25 10:42:57;;;;;;;3.25;0.77;;;;;;;20.51;60.30;98974.31;4395240;32;20200;-85
2023/03/25 10:45:23;;;;;;;2.65;1.00;;;;;;;20.67;60.31;98978.28;4395037;32;20090;-85
2023/03/25 10:47:49;;;;;;;2.53;1.10;;;;;;;20.62;60.32;98983.16;4382421;32;20124;-84
2023/03/25 10:50:15;;;;;;;2.83;0.95;;;;;;;20.80;60.33;98989.47;4369242;32;26705;-84
2023/03/25 10:52:41;;;;;;;3.22;0.80;;;;;;;20.48;60.31;98985.16;4369737;32;20179;-84
2023/03/25 10:55:21;;;;;;;2.08;0.90;;;;;;;20.69;60.31;98997.50;4367374;32;20148;-84
2023/03/25 10:57:46;;;;;;;3.55;0.65;;;;;;;20.81;60.32;98996.44;4368089;32;20102;-84
2023/03/25 11:00:17;;;;;;;4.82;0.90;;;;;;;20.76;60.31;98991.56;4366640;32;25934;-84
2023/03/25 11:02:42;;;;;;;2.62;1.00;;;;;;;20.58;60.31;98994.94;4367367;32;20168;-84
2023/03/25 11:05:08;;;;;;;1.55;0.70;;;;;;;20.50;60.31;98992.94;4366904;32;20082;-84
2023/03/25 11:07:38;;;;;;;1.90;1.00;;;;;;;20.09;60.29;98994.56;4379623;32;20094;-84
2023/03/25 11:10:16;;;;;;;2.20;1.15;;;;;;;20.10;60.29;98985.69;4367143;32;20091;-84
2023/03/25 11:12:45;;;;;;;1.98;0.85;;;;;;;20.03;60.28;98994.25;4367587;32;20110;-84
2023/03/25 11:15:15;;;;;;;3.15;0.70;;;;;;;19.82;60.27;99002.13;4379902;32;20120;-83
2023/03/25 11:17:42;;;;;;;0.82;0.65;;;;;;;19.60;60.26;99008.31;4366679;32;20419;-83
2023/03/25 11:20:17;;;;;;;2.12;0.70;;;;;;;19.69;60.26;99004.97;4367196;32;20224;-85
2023/03/25 11:22:50;;;;;;;3.05;0.82;;;;;;;19.74;60.27;99002.78;4367011;32;20132;-85
2023/03/25 11:25:29;;;;;;;1.55;0.68;;;;;;;19.32;60.25;99007.03;4367046;32;20198;-85
2023/03/25 11:28:00;;;;;;;4.15;0.68;;;;;;;19.26;60.25;99018.09;4354580;32;20156;-84
2023/03/25 11:30:26;;;;;;;2.25;0.82;;;;;;;19.38;60.25;99024.16;4367063;32;20102;-84
2023/03/25 11:32:58;;;;;;;3.55;0.80;;;;;;;19.31;60.25;99018.56;4366301;32;20455;-87
2023/03/25 11:35:26;;;;;;;7.30;1.02;;;;;;;19.29;60.24;99013.41;4379578;32;20086;-85
2023/03/25 11:37:59;;;;;;;3.55;0.70;;;;;;;19.30;60.24;99008.97;4367162;32;20182;-85
2023/03/25 11:40:26;;;;;;;2.50;0.50;;;;;;;19.02;60.24;99018.22;4379239;32;20102;-84
2023/03/25 11:42:53;;;;;;;3.17;0.70;;;;;;;18.80;60.23;99029.59;4366875;32;20106;-84